Loading…
Loading…
Loading…
Loading…
Loading parcel record…
Princeton, NJ·Mercer County
Owner email, phone, and authorized agent are available on Pro.
Activity captured from the county clerk's daily feed. Includes deeds, mortgages, and other recorded filings.
| Date | Type | Grantor | Grantee | Book / Page | Instrument |
|---|---|---|---|---|---|
| 2026-04-21 | NOS | — | — | 1627 / 240 | 2026016965 |
| 2026-04-20 | NOTICE OF SETTLEMENT | — | — | 1627 / 58 | 2026016660 |
| 2026-03-09 | TAX SALE CERTIFICATE |
| — |
| — |
| 12031 / 561 |
| 2026010128 |
| 2024-11-13 | MORTGAGE | — | — | 11914 / 1140 | 2024039283 |
| 2024-11-13 | DEED | — | — | 6574 / 678 | 2024039282 |
| 2022-10-17 | MORTGAGE | — | — | 11771 / 1761 | 2022047449 |
| 2022-09-12 | MORTGAGE | — | — | 11765 / 673 | 2022042824 |
| 2022-07-14 | DEED | — | — | 6491 / 1855 | 2022033323 |
| 2022-01-31 | MORTGAGE | — | — | 11708 / 1428 | 2022006105 |
| 2021-10-25 | MORTGAGE | — | — | 11678 / 1479 | 2021064728 |
| 2021-10-25 | DEED | — | — | 6461 / 1626 | 2021064727 |
| 2021-03-22 | MISC DEED | — | — | 6435 / 1175 | 2021018027 |
| 2020-12-09 | DEED | — | — | 6424 / 358 | 2020057656 |
| 2020-05-20 | DEED | — | — | 6404 / 150 | 2020021002 |
| 2020-02-24 | TAX SALE CERTIFICATE | — | — | 11469 / 1700 | 2020008942 |
| 2019-01-03 | DEED | — | — | 6353 / 1582 | 2019000310 |
| 2018-12-18 | DEED | — | — | 6352 / 572 | 2018053574 |
| 2018-10-09 | DEED | — | — | 6343 / 1754 | 2018043420 |
| 2018-09-13 | MORTGAGE | — | — | 11366 / 344 | 2018039487 |
| 2018-03-20 | DEED | — | — | 6320 / 1491 | 2018012043 |
| 2016-10-24 | DEED MUNICIPAL | — | — | 6266 / 1 | 2016050012 |
| 2015-11-23 | MORTGAGE | — | — | 11167 / 265 | 2015052597 |
| 2015-11-23 | DISCHARGE OF MORTGAGE | — | — | 1534 / 258 | 2015052596 |
| 2015-10-21 | DEED | — | — | 6231 / 1290 | 2015047797 |
| 2015-08-19 | DEED | — | — | 6226 / 584 | 2015037661 |
| 2015-06-25 | MORTGAGE | — | — | 11137 / 1826 | 2015028416 |
| 2015-03-09 | MORTGAGE | — | — | 11115 / 1700 | 2015009388 |
| 2014-12-16 | NOTICE OF LIS PENDENS | — | — | 410 / 987 | 2014052773 |
| 2014-07-17 | DEED | — | — | 6197 / 1480 | 2014029561 |
| 2013-02-14 | NOTICE OF LIS PENDENS | — | — | 402 / 860 | 2013008943 |